Terminal Aerodrome Forecast
Issued by NWS El Paso, TX

Home | Current Version | Previous Version | Text Only | Print | Product List | Glossary On
Versions: 1 2 3 4 5 6 7 8 9 10 11 12 13 14
317
FTUS44 KEPZ 301131
TAFELP
TAF
KELP 301131Z 3012/3112 14009KT P6SM FEW150 SCT250
     FM301500 14008KT P6SM SCT080 SCT100 SCT250
     FM310400 15005KT P6SM FEW080 SCT100 BKN220=

USA.gov is the U.S. government's official web portal to all federal, state and local government web resources and services.